Tropical Cyclones
[Index]
Main Index Home Page Stock Weather Photos Extreme Storms Discussion Storm News and Storm Chasing Reports Tropical Cyclones / Hurricanes / Typhoons Weather Data and Links Wild Fires / Bushfires Weather Observation Techniques Weather Picture Catalogue Tornado Pictures and Reports Stock Video Footage and DVDs for sale
Season 1958-1959 Tropical Cyclone 195926 Track Map
Season 1958-1959 Summaries: [BoM-AU] [JTWC-AU] [JTWC-SIO] [JTWC-SPAC] [JTWC-SH]
<<- Previous TC | JTWC 1958-1959 Season | Next TC ->>

click for intensity scale information  Lat/long Grid: Show Hide

 Date Labels: Show Hide

Joint Typhoon Warning Centre Cyclone Data

Name: 195926
Number: 366 / 5926

13 Mar 1959 06:00 UTC to 24 Mar 1959 06:00 UTC

    date/time    lat    long     hPa   cat  kts
1959-03-13 06   12.6    65.0                              
1959-03-13 12   12.7    64.6                              
1959-03-13 18   12.8    64.2                              
1959-03-14 00   12.8    63.8                              
1959-03-14 06   12.9    63.2                              
1959-03-14 12   12.9    62.5                              
1959-03-14 18   13.0    61.7                              
1959-03-15 00   13.0    61.0                              
1959-03-15 06   13.0    60.2                              
1959-03-15 12   13.0    59.0                              
1959-03-15 18   13.1    57.6                              
1959-03-16 00   13.2    56.3                              
1959-03-16 06   13.4    55.2                              
1959-03-16 12   13.6    54.3                              
1959-03-16 18   13.8    53.4                              
1959-03-17 00   14.1    52.5                              
1959-03-17 06   14.3    51.6                              
1959-03-17 12   14.5    51.1                              
1959-03-17 18   14.6    50.8                              
1959-03-18 00   14.8    50.3                              
1959-03-18 06   15.0    49.9                              
1959-03-18 12   15.2    49.7                              
1959-03-18 18   15.5    49.5                              
1959-03-19 00   15.7    49.3                              
1959-03-19 06   16.0    49.2                              
1959-03-19 12   16.3    49.1                              
1959-03-19 18   16.6    49.0                              
1959-03-20 00   17.0    49.0                              
1959-03-20 06   17.4    49.1                              
1959-03-20 12   17.8    49.2                              
1959-03-20 18   18.1    49.4                              
1959-03-21 00   18.2    49.5                              
1959-03-21 06   18.4    49.7                              
1959-03-21 12   18.9    50.1                              
1959-03-21 18   19.5    50.7                              
1959-03-22 00   19.9    51.1                              
1959-03-22 06   20.3    51.2                              
1959-03-22 12   20.7    51.0                              
1959-03-22 18   21.1    50.7                              
1959-03-23 00   21.3    50.4                              
1959-03-23 06   21.3    50.0                              
1959-03-23 12   21.3    49.5                              
1959-03-23 18   21.3    48.9                              
1959-03-24 00   21.3    48.4                              
1959-03-24 06   21.4    47.8                              
Winds are 1-min average.

Tropical cyclone tracks developed by Michael Bath using data from the Joint Typhoon Warning Centre Best Tracks and Google Maps.


[Australian Severe Weather index] [Copyright Notice] [Email Contacts] [Search This Site] [Privacy Policy]
Document: tropical_cyclone_195926.htm Updated: 18 September 2016